Time;durP1;ratioP1;P1;durP2;ratioP2;P2;SDS_P1;SDS_P2;PMS_P1;PMS_P2;Temp;Humidity;BMP_temperature;BMP_pressure;BME280_temperature;BME280_humidity;BME280_pressure;Samples;Min_cycle;Max_cycle;Signal;HPM_P1;HPM_P2
2022/03/11 06:37:39;;;;;;;30.23;15.02;;;;;;;3.48;48.19;100858.66;6082107;23;20467;-93
2022/03/11 06:40:24;;;;;;;27.93;15.43;;;;;;;3.35;48.58;100828.28;4880838;29;22012;-94
2022/03/11 06:42:54;;;;;;;;;;;;;;;3.56;47.93;100862.97;4884551;29;20057;-93
2022/03/11 06:45:39;;;;;;;26.42;15.20;;;;;;;3.39;48.73;100824.75;4882676;29;19938;-93
2022/03/11 06:48:28;;;;;;;25.42;15.35;;;;;;;3.62;47.52;100850.66;4889816;29;20051;-94
2022/03/11 06:51:04;;;;;;;29.45;14.95;;;;;;;3.67;47.65;100859.34;4891560;29;20105;-92
2022/03/11 06:53:33;;;;;;;26.92;15.27;;;;;;;3.46;46.88;100794.97;4890333;29;20150;-92
2022/03/11 06:56:10;;;;;;;26.50;15.32;;;;;;;3.56;47.10;100813.22;4886893;29;20083;-95
2022/03/11 06:58:38;;;;;;;27.92;15.05;;;;;;;3.81;47.07;100853.94;4889524;29;20063;-95
2022/03/11 07:01:19;;;;;;;26.90;15.32;;;;;;;3.76;46.95;100835.69;4891794;29;20056;-96
2022/03/11 07:03:49;;;;;;;24.63;14.75;;;;;;;3.60;46.81;100802.69;4892491;29;20062;-95
2022/03/11 07:06:32;;;;;;;27.70;15.48;;;;;;;3.64;46.99;100822.69;4890891;29;20052;-94
2022/03/11 07:09:05;;;;;;;26.95;15.95;;;;;;;3.72;47.00;100836.59;4890532;29;20558;-94
2022/03/11 07:11:34;;;;;;;27.50;15.18;;;;;;;3.75;46.78;100836.56;4873884;29;21128;-95
2022/03/11 07:14:14;;;;;;;26.33;15.30;;;;;;;3.70;45.22;100813.91;4887206;29;20060;-93
2022/03/11 07:16:51;;;;;;;23.35;14.02;;;;;;;4.06;45.90;100880.72;4877161;29;20045;-95
2022/03/11 07:19:31;;;;;;;23.95;14.32;;;;;;;3.83;45.67;100829.47;4868076;29;20084;-95
2022/03/11 07:22:02;;;;;;;29.48;15.07;;;;;;;3.83;45.88;100805.88;4891204;29;20107;-94
2022/03/11 07:24:35;;;;;;;29.02;15.23;;;;;;;4.05;44.71;100842.28;4898361;29;20123;-94
2022/03/11 07:27:07;;;;;;;25.77;14.13;;;;;;;3.93;44.88;100803.16;4890648;29;20055;-94
2022/03/11 07:29:47;;;;;;;24.00;13.73;;;;;;;4.03;43.80;100818.72;4889645;29;20100;-93
2022/03/11 07:32:18;;;;;;;22.15;13.38;;;;;;;4.14;43.29;100811.56;4881596;29;22535;-94
2022/03/11 07:34:49;;;;;;;25.40;14.10;;;;;;;4.53;43.40;100870.44;4887497;29;20052;-95
2022/03/11 07:37:18;;;;;;;22.40;13.23;;;;;;;4.54;43.74;100874.81;4890354;29;20060;-94
2022/03/11 07:39:52;;;;;;;23.95;13.73;;;;;;;4.30;42.61;100825.31;4903813;29;20119;-95
2022/03/11 07:42:22;;;;;;;22.33;12.82;;;;;;;4.38;41.84;100823.47;4888289;29;20570;-95
2022/03/11 07:44:54;;;;;;;23.27;13.07;;;;;;;4.45;41.79;100819.84;4893844;29;20047;-95
2022/03/11 07:47:22;;;;;;;21.17;13.18;;;;;;;4.61;42.46;100832.72;4909492;29;20060;-94
2022/03/11 07:49:50;;;;;;;26.00;13.48;;;;;;;4.48;41.97;100811.94;4907249;29;20051;-94
2022/03/11 07:52:22;;;;;;;22.70;12.57;;;;;;;4.72;41.79;100836.91;4889616;29;20539;-94
2022/03/11 07:54:52;;;;;;;21.88;12.65;;;;;;;4.71;41.50;100822.09;4889342;29;20064;-95
2022/03/11 07:57:20;;;;;;;22.95;13.05;;;;;;;4.82;40.64;100833.25;4905653;29;20453;-94
2022/03/11 08:00:07;;;;;;;;;;;;;;;5.15;40.91;100871.19;4904075;29;20147;-94
2022/03/11 08:02:50;;;;;;;23.13;12.55;;;;;;;4.98;40.26;100847.00;4898889;29;19931;-94
2022/03/11 08:05:22;;;;;;;21.45;11.85;;;;;;;5.17;40.33;100872.03;4904766;29;20422;-94
2022/03/11 08:07:55;;;;;;;23.10;12.10;;;;;;;5.18;39.57;100858.03;4912207;29;20078;-94
2022/03/11 08:10:40;;;;;;;23.45;12.52;;;;;;;5.18;40.33;100850.16;4890777;29;20060;-92
2022/03/11 08:13:42;;;;;;;23.40;12.43;;;;;;;5.28;39.40;100854.34;4893029;29;20577;-91
2022/03/11 08:16:21;;;;;;;19.40;11.30;;;;;;;5.40;41.29;100853.22;4869761;29;20609;-92
2022/03/11 08:19:25;;;;;;;21.30;11.90;;;;;;;5.64;40.45;100857.16;4871016;29;20076;-94
2022/03/11 08:22:06;;;;;;;20.15;12.35;;;;;;;5.72;41.61;100834.22;4872585;29;20045;-94
2022/03/11 08:25:13;;;;;;;19.52;12.20;;;;;;;5.88;39.35;100853.19;4872000;29;20057;-95
2022/03/11 08:28:44;;;;;;;17.50;11.23;;;;;;;6.06;39.00;100846.69;4874526;29;20065;-92
2022/03/11 08:31:36;;;;;;;19.98;12.30;;;;;;;6.14;40.04;100829.00;4874754;29;20045;-93
2022/03/11 08:34:14;;;;;;;20.30;12.10;;;;;;;6.15;37.39;100818.44;4872227;29;20057;-94
2022/03/11 08:37:06;;;;;;;21.90;11.30;;;;;;;6.16;38.34;100835.94;4989691;23;20067;-96
2022/03/11 08:39:36;;;;;;;20.38;12.15;;;;;;;5.99;37.44;100796.88;4941058;28;20390;-92
2022/03/11 08:50:34;;;;;;;18.58;11.65;;;;;;;6.19;37.71;100806.09;4948854;28;20090;-93
2022/03/11 08:53:36;;;;;;;17.25;11.45;;;;;;;6.34;37.09;100784.69;4931802;28;20051;-94
2022/03/11 08:56:21;;;;;;;21.30;12.13;;;;;;;7.02;36.29;100821.63;4936479;28;20062;-94
2022/03/11 08:59:27;;;;;;;19.30;11.30;;;;;;;7.66;35.44;100843.63;4947061;28;20056;-93
2022/03/11 09:02:15;;;;;;;16.98;11.20;;;;;;;8.07;34.33;100832.75;4937016;28;20114;-93
2022/03/11 09:05:20;;;;;;;17.90;10.93;;;;;;;8.56;33.05;100807.50;4943779;28;20054;-93
2022/03/11 09:08:29;;;;;;;19.15;12.15;;;;;;;9.13;32.13;100803.84;4949340;28;20066;-93
2022/03/11 09:11:25;;;;;;;17.63;11.60;;;;;;;9.65;31.96;100808.13;4953304;28;20131;-94
2022/03/11 09:14:32;;;;;;;17.20;11.55;;;;;;;9.66;30.83;100764.06;4929917;28;20082;-92
2022/03/11 09:18:08;;;;;;;17.08;11.73;;;;;;;10.29;30.28;100811.03;4946206;28;20054;-92
2022/03/11 09:20:57;;;;;;;17.33;11.85;;;;;;;10.06;30.31;100785.44;4952083;28;20069;-92
2022/03/11 09:23:39;;;;;;;17.15;11.40;;;;;;;10.14;30.33;100790.44;4944285;28;20043;-94
2022/03/11 09:26:45;;;;;;;19.05;11.30;;;;;;;10.26;29.93;100767.94;4944725;28;20078;-95
2022/03/11 09:29:41;;;;;;;16.45;11.38;;;;;;;10.62;29.08;100749.69;4941685;28;20110;-94
2022/03/11 09:32:36;;;;;;;16.13;11.48;;;;;;;10.85;28.95;100797.31;4894295;29;20059;-95
2022/03/11 09:35:34;;;;;;;18.27;12.65;;;;;;;10.63;29.31;100762.88;4921291;29;20501;-93
2022/03/11 09:38:04;;;;;;;18.27;11.77;;;;;;;10.76;30.00;100802.97;4916510;29;20140;-95
2022/03/11 09:40:50;;;;;;;16.88;10.98;;;;;;;10.93;28.77;100747.50;4923947;29;20050;-94
2022/03/11 09:43:41;;;;;;;17.77;11.80;;;;;;;11.45;28.21;100759.34;4914166;29;20048;-92
2022/03/11 09:46:56;;;;;;;14.85;11.60;;;;;;;10.95;28.86;100743.00;4920442;29;20364;-93
2022/03/11 09:53:23;;;;;;;15.55;10.98;;;;;;;11.42;28.80;100735.59;5138028;23;20071;-94
2022/03/11 09:56:20;;;;;;;19.77;10.97;;;;;;;12.12;27.81;100760.72;4898075;29;20052;-92
2022/03/11 10:02:13;;;;;;;18.48;12.00;;;;;;;12.84;26.37;100734.09;4908004;29;21074;-94
2022/03/11 10:04:57;;;;;;;19.02;11.63;;;;;;;13.78;25.93;100749.56;4912935;29;20052;-94
2022/03/11 10:08:52;;;;;;;17.80;11.35;;;;;;;14.09;25.04;100733.59;4897572;29;20055;-93
2022/03/11 10:11:41;;;;;;;15.80;11.98;;;;;;;14.33;24.27;100718.88;4847939;29;20050;-93
2022/03/11 10:15:00;;;;;;;16.95;11.57;;;;;;;14.79;23.79;100734.91;4848312;29;20069;-93
2022/03/11 10:17:45;;;;;;;15.73;11.20;;;;;;;15.27;23.50;100756.91;4899176;29;20052;-94
2022/03/11 10:21:05;;;;;;;15.90;11.48;;;;;;;15.10;23.77;100776.63;4919802;29;20122;-94
2022/03/11 10:24:01;;;;;;;15.23;11.52;;;;;;;15.27;23.03;100772.91;4829238;29;20047;-95
2022/03/11 10:27:07;;;;;;;14.95;11.18;;;;;;;15.39;23.34;100758.84;4802029;29;20131;-94
2022/03/11 10:37:31;;;;;;;14.07;11.15;;;;;;;16.07;22.34;100743.88;4778179;29;20047;-95
2022/03/11 10:44:09;;;;;;;14.65;10.27;;;;;;;16.20;21.99;100701.22;4786004;29;20158;-94
2022/03/11 10:50:35;;;;;;;14.20;10.98;;;;;;;16.27;22.03;100765.78;5009105;28;20076;-94
2022/03/11 10:53:10;;;;;;;16.25;11.50;;;;;;;16.75;21.30;100749.22;5019249;28;20060;-93
2022/03/11 10:55:41;;;;;;;14.55;11.20;;;;;;;16.77;20.91;100719.72;5019949;28;21648;-94
2022/03/11 10:58:29;;;;;;;15.70;11.77;;;;;;;17.31;20.91;100762.41;5020299;28;20050;-95
2022/03/11 11:01:38;;;;;;;14.82;10.57;;;;;;;17.71;20.45;100721.16;5023383;28;20050;-93
2022/03/11 11:04:10;;;;;;;16.67;11.07;;;;;;;18.30;20.04;100756.16;5019233;28;20136;-94
2022/03/11 11:06:46;;;;;;;17.25;10.95;;;;;;;18.03;19.97;100726.03;5020982;28;20046;-96
2022/03/11 11:09:24;;;;;;;13.18;10.32;;;;;;;18.12;20.42;100733.38;5267922;23;20068;-94
2022/03/11 11:12:23;;;;;;;14.10;10.75;;;;;;;18.28;19.53;100680.34;5043662;28;20057;-93
2022/03/11 11:15:39;;;;;;;;;;;;;;;;;;;;;
2022/03/11 11:18:31;;;;;;;14.47;10.90;;;;;;;19.07;18.86;100697.63;5515707;23;20630;-93
2022/03/11 11:21:06;;;;;;;17.63;11.15;;;;;;;19.15;18.62;100698.75;4997149;28;20781;-95
2022/03/11 11:23:56;;;;;;;14.40;10.55;;;;;;;19.29;18.61;100662.75;4994213;28;20058;-96
2022/03/11 11:26:40;;;;;;;13.98;11.05;;;;;;;19.39;18.11;100658.38;5007357;28;20049;-96
2022/03/11 11:29:29;;;;;;;13.27;10.45;;;;;;;19.19;18.79;100721.72;5006598;28;20065;-96
2022/03/11 11:34:46;;;;;;;13.65;10.35;;;;;;;19.72;17.92;100665.59;5152939;23;20057;-96
2022/03/11 11:40:32;;;;;;;12.90;9.70;;;;;;;20.60;17.41;100649.38;5322210;23;20060;-96
2022/03/11 12:01:47;;;;;;;14.15;10.80;;;;;;;18.03;19.46;100693.88;5320655;23;20114;-92
2022/03/11 12:07:22;;;;;;;16.10;11.00;;;;;;;17.05;20.31;100615.19;5574607;23;20044;-95
2022/03/11 12:10:04;;;;;;;13.63;10.27;;;;;;;16.90;20.84;100658.19;4948269;28;20132;-94
2022/03/11 12:12:59;;;;;;;13.90;11.57;;;;;;;16.34;21.14;100599.59;4949167;28;20618;-94
2022/03/11 12:25:32;;;;;;;;;;;;;;;;;;;;;
2022/03/11 12:29:32;;;;;;;;;;;;;;;;;;;;;
2022/03/11 12:32:38;;;;;;;16.17;10.30;;;;;;;20.55;17.83;100622.84;4914779;29;20055;-94
2022/03/11 12:35:23;;;;;;;12.77;9.95;;;;;;;20.46;17.64;100572.50;4926192;29;20076;-96
2022/03/11 12:38:21;;;;;;;14.80;10.35;;;;;;;21.70;16.47;100614.53;4930127;29;20095;-96
2022/03/11 12:41:27;;;;;;;12.50;9.90;;;;;;;22.10;16.18;100608.22;4933406;29;20191;-95
2022/03/11 12:44:25;;;;;;;12.63;10.38;;;;;;;21.94;16.38;100589.03;4884926;29;20529;-94
2022/03/11 12:47:55;;;;;;;13.40;10.48;;;;;;;21.79;16.40;100596.66;4839277;29;20452;-96
2022/03/11 12:51:36;;;;;;;11.88;9.98;;;;;;;20.53;17.10;100525.25;4832946;29;20053;-94
2022/03/11 12:54:56;;;;;;;12.05;9.73;;;;;;;21.17;16.80;100551.06;4796030;29;20061;-95
2022/03/11 12:57:51;;;;;;;12.60;10.50;;;;;;;21.45;16.84;100557.56;4835018;29;20057;-96
2022/03/11 13:01:08;;;;;;;12.20;10.57;;;;;;;21.59;16.51;100541.00;4824341;29;20049;-94
2022/03/11 13:04:19;;;;;;;14.77;10.60;;;;;;;21.17;17.01;100561.84;4881398;29;20040;-94
2022/03/11 13:07:01;;;;;;;13.82;10.35;;;;;;;21.21;16.54;100521.09;4879689;29;20159;-95
2022/03/11 13:10:50;;;;;;;12.55;10.98;;;;;;;22.14;16.72;100563.81;4896863;29;20744;-93
2022/03/11 13:14:03;;;;;;;13.93;9.88;;;;;;;23.11;15.05;100507.78;4899791;29;20039;-94
2022/03/11 13:16:53;;;;;;;13.05;10.38;;;;;;;23.21;15.02;100508.56;4914220;29;20060;-94
2022/03/11 13:19:26;;;;;;;13.55;10.35;;;;;;;23.47;14.80;100553.78;4943883;28;20058;-95
2022/03/11 13:22:40;;;;;;;13.32;10.32;;;;;;;23.71;14.87;100525.22;4944015;28;20050;-94
2022/03/11 13:26:01;;;;;;;15.55;10.20;;;;;;;23.50;14.51;100481.34;4923029;28;20274;-93
2022/03/11 13:29:09;;;;;;;16.52;10.02;;;;;;;23.39;15.20;100541.88;4924204;28;20059;-95
2022/03/11 13:32:14;;;;;;;12.25;9.63;;;;;;;23.66;14.56;100526.66;4939382;28;20093;-93
2022/03/11 13:35:13;;;;;;;14.35;10.45;;;;;;;23.59;14.52;100503.97;4947765;28;20126;-95
2022/03/11 13:38:06;;;;;;;14.27;9.85;;;;;;;23.37;14.50;100479.03;4948933;28;20039;-95
2022/03/11 13:41:37;;;;;;;15.77;10.57;;;;;;;22.57;15.20;100482.38;4952384;28;20039;-95
2022/03/11 13:50:30;;;;;;;;;;;;;;;19.65;18.65;100527.38;5125862;23;19958;-95
2022/03/11 13:53:11;;;;;;;13.38;10.15;;;;;;;19.77;18.22;100515.59;4930634;29;20476;-95
2022/03/11 13:55:53;;;;;;;14.70;9.98;;;;;;;21.25;17.21;100503.63;4930175;29;20056;-95
2022/03/11 13:58:31;;;;;;;12.70;10.32;;;;;;;22.64;15.83;100480.78;4935666;29;20059;-96
2022/03/11 14:01:16;;;;;;;16.05;10.65;;;;;;;23.56;14.69;100483.50;4937520;29;20047;-96
2022/03/11 14:04:16;;;;;;;13.95;10.43;;;;;;;23.79;14.58;100438.75;4937917;29;20077;-94
2022/03/11 14:07:17;;;;;;;13.25;10.25;;;;;;;24.48;14.15;100472.28;4924014;29;20574;-95
2022/03/11 14:09:57;;;;;;;15.52;10.38;;;;;;;25.04;13.94;100473.59;4920011;29;20639;-94
2022/03/11 14:13:11;;;;;;;13.85;11.13;;;;;;;26.15;12.87;100429.72;4843456;29;20101;-95
2022/03/11 14:15:47;;;;;;;13.65;10.38;;;;;;;26.64;12.17;100466.84;4847244;29;20065;-96
2022/03/11 14:18:25;;;;;;;12.85;10.63;;;;;;;25.78;13.13;100418.59;4845108;29;20066;-96
2022/03/11 14:21:03;;;;;;;15.55;10.25;;;;;;;25.36;13.05;100421.38;4847611;29;20053;-95
2022/03/11 14:23:39;;;;;;;12.70;9.82;;;;;;;25.35;13.30;100433.22;4847067;29;20149;-95
2022/03/11 14:26:45;;;;;;;15.30;10.40;;;;;;;24.38;13.50;100414.72;4807346;29;20427;-96
2022/03/11 14:36:44;;;;;;;13.00;10.77;;;;;;;25.44;13.20;100438.50;4868288;29;20049;-94
2022/03/11 14:39:35;;;;;;;11.45;10.13;;;;;;;26.33;12.81;100474.88;4887870;29;20044;-95
2022/03/11 14:43:05;;;;;;;15.20;9.75;;;;;;;26.78;12.17;100428.91;4842486;29;20056;-95
2022/03/11 14:46:12;;;;;;;14.50;10.18;;;;;;;25.83;12.11;100391.78;4824039;29;20552;-94
2022/03/11 14:49:09;;;;;;;11.18;10.00;;;;;;;25.37;13.14;100456.44;4837759;29;20045;-93
2022/03/11 14:51:53;;;;;;;12.60;10.93;;;;;;;24.71;12.88;100391.38;4839950;29;20030;-95
2022/03/11 14:54:20;;;;;;;14.73;9.98;;;;;;;24.70;13.38;100424.88;4842584;29;20031;-94
2022/03/11 14:57:38;;;;;;;12.23;9.85;;;;;;;22.90;14.30;100399.13;4860294;29;20089;-93
2022/03/11 15:01:05;;;;;;;14.40;10.07;;;;;;;20.36;16.61;100367.19;4836871;29;20058;-94
2022/03/11 15:04:19;;;;;;;12.18;10.70;;;;;;;19.11;18.25;100434.22;4855492;29;20105;-94
2022/03/11 15:15:19;;;;;;;;;;;;;;;17.00;20.43;100424.69;4847722;29;20057;-94
2022/03/11 15:18:03;;;;;;;14.85;10.02;;;;;;;15.90;21.20;100370.19;4889343;29;19924;-94
2022/03/11 15:21:47;;;;;;;18.98;10.75;;;;;;;15.41;22.01;100365.53;4840883;29;20091;-94
2022/03/11 15:27:27;;;;;;;17.67;11.45;;;;;;;15.13;22.41;100368.31;5181758;23;20057;-95
2022/03/11 15:30:06;;;;;;;22.52;12.70;;;;;;;15.11;22.85;100401.41;4973504;28;20053;-94
2022/03/11 15:33:36;;;;;;;14.75;10.82;;;;;;;14.55;22.61;100357.94;4965991;28;20054;-93
2022/03/11 15:36:11;;;;;;;15.98;10.25;;;;;;;14.61;22.86;100405.53;4988827;28;20100;-94
2022/03/11 15:38:49;;;;;;;14.23;10.30;;;;;;;14.30;23.84;100385.25;4990436;28;20058;-94
2022/03/11 16:22:13;;;;;;;17.92;9.45;;;;;;;13.11;23.82;100426.06;5228366;23;20056;-95
2022/03/11 16:24:56;;;;;;;14.75;9.02;;;;;;;12.72;24.58;100389.31;5058801;23;20167;-94
2022/03/11 16:27:38;;;;;;;14.00;8.88;;;;;;;12.50;23.95;100363.06;4925443;29;20059;-94
2022/03/11 16:30:20;;;;;;;13.85;9.23;;;;;;;12.62;23.88;100392.47;4935290;29;20131;-92
2022/03/11 16:33:27;;;;;;;11.65;8.63;;;;;;;12.61;24.69;100424.44;4934452;29;20399;-95
2022/03/11 16:36:22;;;;;;;14.07;8.60;;;;;;;12.35;24.25;100415.22;4881650;29;20123;-95
2022/03/11 16:39:20;;;;;;;12.80;9.07;;;;;;;12.13;24.64;100393.41;4903154;29;20040;-96
2022/03/11 16:49:40;;;;;;;12.68;7.55;;;;;;;11.91;24.93;100452.09;4898658;29;20543;-96
2022/03/11 16:52:56;;;;;;;11.50;7.53;;;;;;;11.75;24.36;100436.06;4902687;29;20047;-95
2022/03/11 16:55:39;;;;;;;10.57;7.32;;;;;;;11.56;24.44;100408.75;4878062;29;20077;-94
2022/03/11 16:58:20;;;;;;;16.17;7.88;;;;;;;11.32;24.55;100380.84;4899452;29;20155;-94
2022/03/11 17:09:20;;;;;;;10.95;7.07;;;;;;;11.49;24.49;100447.97;4919938;28;20055;-94
2022/03/11 17:12:28;;;;;;;13.68;7.32;;;;;;;11.39;24.22;100454.66;4919619;29;20130;-95
2022/03/11 17:15:29;;;;;;;9.60;6.65;;;;;;;11.38;24.52;100460.91;4918833;29;20056;-94
2022/03/11 17:18:06;;;;;;;13.25;7.25;;;;;;;11.13;24.52;100445.34;4917981;29;20404;-94
2022/03/11 17:21:02;;;;;;;9.95;6.90;;;;;;;11.07;24.40;100437.69;4888639;29;20079;-95
2022/03/11 17:23:51;;;;;;;13.80;7.15;;;;;;;11.08;24.77;100460.59;4883996;29;20598;-96
2022/03/11 17:26:25;;;;;;;9.75;7.30;;;;;;;10.98;25.17;100459.34;4878881;29;20104;-96
2022/03/11 17:28:55;;;;;;;13.35;8.05;;;;;;;10.95;24.70;100458.63;4894147;29;20135;-96
2022/03/11 17:31:25;;;;;;;12.05;7.35;;;;;;;10.85;25.00;100464.38;4897497;29;20049;-96
2022/03/11 17:33:57;;;;;;;13.85;7.38;;;;;;;10.61;25.28;100444.31;4897678;29;20135;-95
2022/03/11 17:36:47;;;;;;;10.05;6.93;;;;;;;10.38;24.99;100415.41;4869213;29;20543;-96
2022/03/11 17:39:54;;;;;;;10.18;6.80;;;;;;;10.70;24.86;100470.38;4879029;29;20053;-96
2022/03/11 17:43:01;;;;;;;10.57;7.10;;;;;;;10.41;24.95;100450.50;4877117;29;20059;-96
2022/03/11 17:45:29;;;;;;;10.40;7.03;;;;;;;10.40;24.51;100453.22;4879001;29;20100;-96
2022/03/11 17:48:02;;;;;;;11.23;6.78;;;;;;;10.64;24.15;100472.44;4879732;29;20104;-96
2022/03/11 17:50:32;;;;;;;10.35;6.43;;;;;;;10.30;23.96;100412.22;4900201;29;20052;-96
2022/03/11 17:53:19;;;;;;;9.20;6.38;;;;;;;10.58;23.89;100484.16;4889346;29;20049;-96
2022/03/11 17:55:55;;;;;;;11.00;6.57;;;;;;;10.51;24.10;100490.69;4913036;29;20060;-95
2022/03/11 17:58:32;;;;;;;11.25;6.28;;;;;;;10.22;24.18;100449.63;4905630;29;20048;-95
2022/03/11 18:01:39;;;;;;;11.68;6.00;;;;;;;10.16;23.74;100429.56;4842160;29;20101;-96
2022/03/11 18:05:26;;;;;;;9.05;6.38;;;;;;;10.60;23.59;100487.59;4849414;29;20077;-96
2022/03/11 18:12:52;;;;;;;8.02;5.78;;;;;;;10.44;23.85;100482.13;4830495;29;20050;-96
2022/03/11 18:15:52;;;;;;;9.27;6.10;;;;;;;10.02;23.94;100433.75;4844387;29;20177;-95
2022/03/11 18:18:54;;;;;;;10.23;6.20;;;;;;;10.29;24.18;100492.56;4815839;29;20070;-96
2022/03/11 18:21:53;;;;;;;11.75;6.75;;;;;;;10.13;24.13;100482.59;4822073;29;20189;-94
2022/03/11 18:24:57;;;;;;;10.48;6.00;;;;;;;9.95;24.52;100478.09;4812975;29;20070;-94
2022/03/11 18:43:59;;;;;;;12.95;6.43;;;;;;;9.57;25.03;100477.09;4923082;29;20051;-94
2022/03/11 18:53:04;;;;;;;10.95;5.88;;;;;;;9.33;24.78;100430.53;4893401;29;20477;-96
2022/03/11 19:00:16;;;;;;;;;;;;;;;;;;;;;
2022/03/11 19:10:39;;;;;;;12.82;7.82;;;;;;;8.98;27.32;100488.25;4843535;29;20121;-96
2022/03/11 19:23:59;;;;;;;12.80;7.53;;;;;;;8.50;28.54;100495.44;4950517;28;20082;-95
2022/03/11 19:26:48;;;;;;;14.80;8.55;;;;;;;8.39;28.72;100487.88;4948134;29;20079;-96
2022/03/11 19:29:36;;;;;;;12.25;8.32;;;;;;;8.30;28.65;100489.06;4944807;29;20122;-93
2022/03/11 19:36:22;;;;;;;14.75;8.55;;;;;;;8.10;29.18;100460.75;4948464;29;20074;-95
2022/03/11 19:40:14;;;;;;;11.85;7.68;;;;;;;8.22;29.62;100493.72;4924410;29;20132;-96
2022/03/11 19:43:09;;;;;;;17.52;8.52;;;;;;;8.28;29.05;100511.13;4944713;29;20032;-95
2022/03/11 19:49:45;;;;;;;11.93;7.65;;;;;;;7.92;28.80;100464.03;4871846;29;20140;-93
2022/03/11 19:52:30;;;;;;;12.38;7.38;;;;;;;8.06;28.99;100493.41;4885626;29;20706;-94
2022/03/11 19:55:35;;;;;;;13.00;7.53;;;;;;;8.19;28.66;100506.16;4891583;29;20101;-95
2022/03/11 19:58:47;;;;;;;12.63;8.00;;;;;;;7.97;28.83;100477.94;4893075;29;20138;-93
2022/03/11 20:04:56;;;;;;;12.00;7.55;;;;;;;7.96;28.68;100468.28;5280754;23;20057;-92
2022/03/11 20:07:44;;;;;;;14.57;7.53;;;;;;;7.93;28.58;100468.41;4972038;28;20047;-95
2022/03/11 20:13:47;;;;;;;;;;;;;;;;;;;;;
2022/03/11 20:16:58;;;;;;;11.48;7.72;;;;;;;8.04;28.76;100518.97;4863790;29;20063;-95
2022/03/11 20:25:31;;;;;;;;;;;;;;;8.16;29.28;100548.50;4955251;29;20177;-92
2022/03/11 20:35:46;;;;;;;13.73;8.75;;;;;;;7.75;30.45;100517.34;4939431;29;20050;-94
2022/03/11 20:39:13;;;;;;;;;;;;;;;;;;;;;
2022/03/11 20:42:14;;;;;;;12.43;7.88;;;;;;;7.63;30.73;100519.53;4930798;29;20064;-94
2022/03/11 20:44:56;;;;;;;17.92;9.35;;;;;;;7.63;31.07;100530.06;4945234;29;20586;-94
2022/03/11 20:47:59;;;;;;;14.95;8.98;;;;;;;7.53;31.46;100534.78;4946358;29;20051;-95
2022/03/11 20:51:46;;;;;;;15.48;9.80;;;;;;;7.56;31.95;100558.38;4949054;29;20099;-95
2022/03/11 20:54:50;;;;;;;14.70;9.23;;;;;;;7.39;32.36;100561.56;4851690;29;20198;-94
2022/03/11 20:57:34;;;;;;;15.00;9.50;;;;;;;7.08;32.69;100544.13;4850653;29;20514;-94
2022/03/11 21:00:21;;;;;;;15.95;9.48;;;;;;;6.99;33.15;100537.34;4844871;29;20109;-93
2022/03/11 21:03:14;;;;;;;14.32;9.15;;;;;;;7.06;32.84;100559.97;4845179;29;20113;-94
2022/03/11 21:06:43;;;;;;;15.35;9.85;;;;;;;6.90;32.76;100533.22;4844081;29;20057;-94
2022/03/11 21:10:12;;;;;;;15.70;8.70;;;;;;;7.02;33.58;100542.53;4859437;29;20085;-96
2022/03/11 21:12:53;;;;;;;13.88;8.93;;;;;;;7.10;33.15;100577.38;4858386;29;20037;-94
2022/03/11 21:15:59;;;;;;;16.58;9.93;;;;;;;6.77;33.38;100534.47;4852790;29;20057;-94
2022/03/11 21:18:56;;;;;;;18.65;9.48;;;;;;;6.95;33.29;100585.72;5121801;23;20450;-93
2022/03/11 21:41:40;;;;;;;16.60;10.48;;;;;;;6.75;34.21;100588.09;5201736;23;20042;-94
2022/03/11 21:44:47;;;;;;;;;;;;;;;;;;;;;
2022/03/11 21:47:51;;;;;;;;;;;;;;;;;;;;;
2022/03/11 21:50:44;;;;;;;17.65;10.88;;;;;;;6.36;35.50;100538.28;4963439;28;20047;-94
2022/03/11 21:53:22;;;;;;;18.15;10.60;;;;;;;6.51;35.78;100569.44;4984918;28;20050;-94
2022/03/11 21:56:00;;;;;;;14.40;10.60;;;;;;;6.55;35.25;100576.34;4964929;28;20119;-94
2022/03/11 21:58:46;;;;;;;14.35;9.93;;;;;;;6.25;35.80;100549.13;4983939;28;20039;-94
2022/03/11 22:02:18;;;;;;;19.45;10.68;;;;;;;6.36;36.53;100579.50;4985162;28;20102;-93
2022/03/11 22:08:37;;;;;;;13.98;9.52;;;;;;;5.99;36.05;100536.63;5338287;23;20055;-94
2022/03/11 22:20:12;;;;;;;16.00;9.95;;;;;;;6.19;37.03;100609.75;5417627;23;20558;-95
2022/03/11 22:23:22;;;;;;;;;;;;;;;;;;;;;
2022/03/11 22:26:38;;;;;;;;;;;;;;;;;;;;;
2022/03/11 22:38:16;;;;;;;19.48;11.13;;;;;;;6.20;38.37;100600.09;4870968;29;20153;-94
2022/03/11 22:42:06;;;;;;;;;;;;;;;;;;;;;
2022/03/11 22:45:26;;;;;;;24.40;13.68;;;;;;;6.09;37.25;100603.00;4866392;29;20038;-96
2022/03/11 22:56:45;;;;;;;;;;;;;;;;;;;;;
2022/03/11 23:03:41;;;;;;;19.70;11.32;;;;;;;5.61;36.97;100547.22;4861175;29;20050;-93
2022/03/11 23:10:18;;;;;;;21.42;11.07;;;;;;;5.72;36.28;100573.22;4826415;29;20071;-94
2022/03/11 23:13:44;;;;;;;;;;;;;;;;;;;;;
